createdAt,value
2024-02-06T00:14:19.314Z,75.77
2024-02-06T00:44:25.772Z,83.74
2024-02-06T01:14:32.081Z,89.93
2024-02-06T01:44:37.448Z,91.48
2024-02-06T02:14:42.834Z,91.55
2024-02-06T02:44:50.426Z,94.73
2024-02-06T03:14:55.791Z,95.00
2024-02-06T03:45:01.206Z,96.38
2024-02-06T04:15:07.963Z,96.60
2024-02-06T04:45:13.726Z,98.16
2024-02-06T05:15:20.889Z,98.63
2024-02-06T05:45:26.252Z,98.65
2024-02-06T06:15:31.610Z,100.00
2024-02-06T06:45:37.205Z,99.87
2024-02-06T07:15:43.517Z,100.00
2024-02-06T07:45:49.010Z,100.00
2024-02-06T08:15:54.577Z,100.00
2024-02-06T08:46:00.131Z,100.00
2024-02-06T09:16:07.666Z,100.00
2024-02-06T09:46:15.127Z,100.00
2024-02-06T10:16:20.549Z,100.00
2024-02-06T10:46:25.879Z,100.00
2024-02-06T11:16:35.147Z,100.00
2024-02-06T11:46:48.142Z,100.00
2024-02-06T12:16:56.238Z,100.00
2024-02-06T12:47:02.189Z,100.00
2024-02-06T13:17:07.753Z,100.00
2024-02-06T13:47:13.839Z,100.00
2024-02-06T14:17:19.163Z,100.00
2024-02-06T14:47:24.533Z,100.00
2024-02-06T15:17:29.970Z,100.00
2024-02-06T15:47:35.500Z,100.00
2024-02-06T16:17:41.358Z,100.00
2024-02-06T16:47:46.731Z,100.00
2024-02-06T17:17:52.230Z,97.02
2024-02-06T17:47:57.690Z,84.88
2024-02-06T18:18:03.146Z,73.36
2024-02-06T18:48:09.398Z,79.25
2024-02-06T19:18:14.828Z,76.88
2024-02-06T19:48:20.404Z,70.02
2024-02-06T20:18:25.866Z,65.79
2024-02-06T20:48:31.282Z,64.83
2024-02-06T21:18:36.635Z,68.27
2024-02-06T21:48:42.086Z,62.31
2024-02-06T22:18:48.361Z,59.01
2024-02-06T22:48:54.697Z,60.54
2024-02-06T23:19:00.169Z,63.22
2024-02-06T23:49:06.450Z,62.49
